createdAt,value
2022-12-15T00:01:51.961Z,-6.80
2022-12-15T00:04:57.741Z,-6.80
2022-12-15T00:08:03.082Z,-6.90
2022-12-15T00:11:07.781Z,-6.70
2022-12-15T00:14:13.122Z,-6.70
2022-12-15T00:17:20.151Z,-6.60
2022-12-15T00:20:25.783Z,-6.70
2022-12-15T00:23:31.590Z,-5.70
2022-12-15T00:26:37.222Z,-6.70
2022-12-15T00:29:42.555Z,-6.80
2022-12-15T00:32:48.910Z,-6.70
2022-12-15T00:35:57.284Z,-6.60
2022-12-15T00:38:45.278Z,-6.50
2022-12-15T00:41:33.000Z,-7.00
2022-12-15T00:44:21.188Z,-6.60
2022-12-15T00:47:08.522Z,-6.50
2022-12-15T00:50:15.078Z,-6.50
2022-12-15T00:53:20.524Z,-6.70
2022-12-15T00:56:26.144Z,-6.70
2022-12-15T00:59:30.875Z,-6.80
2022-12-15T01:02:36.097Z,-6.80
2022-12-15T01:05:42.798Z,-6.90
2022-12-15T01:08:47.550Z,-6.90
2022-12-15T01:11:53.224Z,-7.00
2022-12-15T01:14:58.531Z,-7.00
2022-12-15T01:18:03.570Z,-7.00
2022-12-15T01:20:57.959Z,-7.10
2022-12-15T01:23:46.093Z,-6.90
2022-12-15T01:26:33.123Z,-6.80
2022-12-15T01:29:20.262Z,-6.80
2022-12-15T01:32:09.102Z,-6.80
2022-12-15T01:34:57.364Z,-6.80
2022-12-15T01:37:46.854Z,-6.80
2022-12-15T01:40:46.778Z,-6.90
2022-12-15T01:43:35.748Z,-7.00
2022-12-15T01:46:24.528Z,-7.00
2022-12-15T01:49:15.370Z,-6.90
2022-12-15T01:52:05.066Z,-6.90
2022-12-15T01:54:56.265Z,-7.20
2022-12-15T01:57:44.506Z,-6.90
2022-12-15T02:00:33.213Z,-6.90
2022-12-15T02:03:21.196Z,-6.90
2022-12-15T02:06:09.449Z,-6.90
2022-12-15T02:08:58.361Z,-7.20
2022-12-15T02:12:06.521Z,-7.30
2022-12-15T02:14:59.904Z,-8.30
2022-12-15T02:17:52.535Z,-7.10
2022-12-15T02:20:46.717Z,-7.10
2022-12-15T02:23:41.010Z,-7.10
2022-12-15T02:26:49.325Z,-6.10
2022-12-15T02:29:48.867Z,-7.00
2022-12-15T02:32:40.781Z,-7.00
2022-12-15T02:35:31.264Z,-7.10
2022-12-15T02:38:29.330Z,-7.10
2022-12-15T02:41:32.230Z,-7.20
2022-12-15T02:44:22.858Z,-7.30
2022-12-15T02:47:24.207Z,-7.50
2022-12-15T02:50:20.370Z,-7.50
2022-12-15T02:53:12.893Z,-7.50
2022-12-15T02:56:06.172Z,-7.50
2022-12-15T02:58:59.098Z,-7.30
2022-12-15T03:01:51.835Z,-7.20
2022-12-15T03:04:40.688Z,-7.20
2022-12-15T03:07:30.292Z,-7.20
2022-12-15T03:10:18.439Z,-7.30
2022-12-15T03:13:06.807Z,-7.50
2022-12-15T03:15:54.741Z,-7.50
2022-12-15T03:18:42.223Z,-7.60
2022-12-15T03:21:33.181Z,-6.70
2022-12-15T03:24:22.962Z,-7.60
2022-12-15T03:27:10.346Z,-7.70
2022-12-15T03:29:58.811Z,-7.70
2022-12-15T03:32:46.320Z,-7.70
2022-12-15T03:35:34.564Z,-7.60
2022-12-15T03:38:22.546Z,-7.60
2022-12-15T03:41:12.119Z,-7.50
2022-12-15T03:44:00.223Z,-7.50
2022-12-15T03:46:48.161Z,-7.40
2022-12-15T03:49:35.999Z,-7.30
2022-12-15T03:52:24.382Z,-7.20
2022-12-15T03:55:12.157Z,-7.20
2022-12-15T03:58:01.586Z,-7.20
2022-12-15T04:00:49.634Z,-7.20
2022-12-15T04:03:37.485Z,-7.20
2022-12-15T04:06:24.763Z,-7.20
2022-12-15T04:09:12.485Z,-7.20
2022-12-15T04:12:03.534Z,-7.10
2022-12-15T04:14:54.144Z,-7.10
2022-12-15T04:17:42.260Z,-6.80
2022-12-15T04:20:30.801Z,-7.00
2022-12-15T04:23:19.608Z,-7.00
2022-12-15T04:26:24.406Z,-7.00
2022-12-15T04:29:29.778Z,-7.00
2022-12-15T04:32:36.247Z,-7.10
2022-12-15T04:35:42.927Z,-7.10
2022-12-15T04:38:50.547Z,-7.10
2022-12-15T04:41:56.861Z,-7.20
2022-12-15T04:45:02.140Z,-7.30
2022-12-15T04:48:08.700Z,-7.30
2022-12-15T04:51:13.778Z,-7.30
2022-12-15T04:54:18.782Z,-7.30
2022-12-15T04:57:23.895Z,-7.30
2022-12-15T05:00:29.851Z,-7.30
2022-12-15T05:03:37.175Z,-7.30
2022-12-15T05:06:42.797Z,-7.30
2022-12-15T05:09:48.045Z,-7.20
2022-12-15T05:12:52.914Z,-7.30
2022-12-15T05:15:58.953Z,-7.30
2022-12-15T05:19:05.738Z,-7.40
2022-12-15T05:22:10.855Z,-7.40
2022-12-15T05:25:16.359Z,-7.40
2022-12-15T05:28:23.985Z,-7.40
2022-12-15T05:31:28.832Z,-7.30
2022-12-15T05:34:17.737Z,-7.20
2022-12-15T05:37:06.474Z,-7.10
2022-12-15T05:39:54.958Z,-7.10
2022-12-15T05:42:43.331Z,-7.20
2022-12-15T05:45:38.198Z,-7.40
2022-12-15T05:48:28.357Z,-7.50
2022-12-15T05:51:20.045Z,-7.60
2022-12-15T05:54:07.616Z,-7.50
2022-12-15T05:56:56.067Z,-7.50
2022-12-15T05:59:43.715Z,-7.70
2022-12-15T06:02:31.294Z,-7.80
2022-12-15T06:05:19.355Z,-7.70
2022-12-15T06:08:09.045Z,-7.60
2022-12-15T06:10:57.348Z,-7.50
2022-12-15T06:13:48.157Z,-7.50
2022-12-15T06:16:40.987Z,-7.50
2022-12-15T06:19:32.077Z,-7.10
2022-12-15T06:22:19.793Z,-7.60
2022-12-15T06:25:09.808Z,-7.70
2022-12-15T06:28:01.705Z,-7.60
2022-12-15T06:30:50.132Z,-7.50
2022-12-15T06:33:38.203Z,-7.30
2022-12-15T06:36:26.283Z,-7.20
2022-12-15T06:39:15.283Z,-7.20
2022-12-15T06:42:04.496Z,-7.20
2022-12-15T06:44:52.321Z,-7.20
2022-12-15T06:47:39.548Z,-7.10
2022-12-15T06:50:27.171Z,-7.10
2022-12-15T06:53:15.047Z,-7.10
2022-12-15T06:56:03.561Z,-7.20
2022-12-15T06:58:53.885Z,-7.30
2022-12-15T07:01:43.160Z,-7.30
2022-12-15T07:04:33.098Z,-7.20
2022-12-15T07:07:21.352Z,-7.20
2022-12-15T07:10:11.085Z,-7.20
2022-12-15T07:12:58.869Z,-7.30
2022-12-15T07:15:50.139Z,-7.40
2022-12-15T07:18:38.017Z,-6.60
2022-12-15T07:21:25.374Z,-9.00
2022-12-15T07:24:13.951Z,-7.50
2022-12-15T07:27:02.450Z,-7.50
2022-12-15T07:29:51.499Z,-7.60
2022-12-15T07:32:40.888Z,-7.50
2022-12-15T07:35:28.694Z,-7.50
2022-12-15T07:38:17.069Z,-7.50
2022-12-15T07:41:05.631Z,-7.50
2022-12-15T07:43:54.898Z,-7.60
2022-12-15T07:46:46.902Z,-7.40
2022-12-15T07:49:35.892Z,-7.60
2022-12-15T07:52:24.651Z,-7.60
2022-12-15T07:55:13.194Z,-7.70
2022-12-15T07:58:01.145Z,-7.60
2022-12-15T08:00:49.117Z,-7.60
2022-12-15T08:03:38.161Z,-7.50
2022-12-15T08:06:27.596Z,-7.40
2022-12-15T08:09:15.757Z,-7.40
2022-12-15T08:12:04.515Z,-7.20
2022-12-15T08:14:52.554Z,-7.20
2022-12-15T08:17:41.008Z,-7.20
2022-12-15T08:20:29.280Z,-7.00
2022-12-15T08:23:20.671Z,-7.10
2022-12-15T08:26:09.877Z,-7.20
2022-12-15T08:29:11.833Z,-7.10
2022-12-15T08:32:05.686Z,-7.00
2022-12-15T08:34:54.761Z,-7.00
2022-12-15T08:37:43.091Z,-6.60
2022-12-15T08:40:32.201Z,-6.80
2022-12-15T08:43:20.439Z,-6.70
2022-12-15T08:46:09.756Z,-6.70
2022-12-15T08:48:57.411Z,-6.70
2022-12-15T08:51:45.386Z,-6.60
2022-12-15T08:54:37.894Z,-6.40
2022-12-15T08:57:27.471Z,-6.30
2022-12-15T09:00:16.262Z,-6.20
2022-12-15T09:03:05.006Z,-6.20
2022-12-15T09:05:53.464Z,-6.30
2022-12-15T09:08:43.528Z,-5.90
2022-12-15T09:11:36.649Z,-6.00
2022-12-15T09:14:29.639Z,-5.90
2022-12-15T09:17:17.468Z,-5.80
2022-12-15T09:20:05.686Z,-5.70
2022-12-15T09:22:52.900Z,-5.80
2022-12-15T09:25:40.581Z,-5.70
2022-12-15T09:28:28.003Z,-5.70
2022-12-15T09:31:22.121Z,-5.70
2022-12-15T09:34:14.249Z,-5.60
2022-12-15T09:37:07.228Z,-5.60
2022-12-15T09:39:55.353Z,-5.50
2022-12-15T09:42:43.021Z,-5.40
2022-12-15T09:45:35.460Z,-5.40
2022-12-15T09:48:26.404Z,-4.20
2022-12-15T09:51:16.607Z,-5.20
2022-12-15T09:54:09.759Z,-5.10
2022-12-15T09:56:58.721Z,-5.10
2022-12-15T09:59:53.551Z,-5.10
2022-12-15T10:03:00.724Z,-5.00
2022-12-15T10:06:15.389Z,-5.00
2022-12-15T10:09:05.437Z,-5.20
2022-12-15T10:11:57.090Z,-4.80
2022-12-15T10:14:46.330Z,-6.30
2022-12-15T10:17:42.932Z,-4.70
2022-12-15T10:20:32.121Z,-4.40
2022-12-15T10:23:21.305Z,-4.60
2022-12-15T10:26:19.322Z,-4.50
2022-12-15T10:29:15.473Z,-4.40
2022-12-15T10:32:05.737Z,-4.30
2022-12-15T10:34:53.725Z,-4.20
2022-12-15T10:37:48.073Z,-4.10
2022-12-15T10:40:51.179Z,-4.00
2022-12-15T10:43:40.849Z,-3.90
2022-12-15T10:46:29.423Z,-3.80
2022-12-15T10:49:25.338Z,-3.70
2022-12-15T10:52:24.718Z,-3.60
2022-12-15T10:55:31.134Z,-3.50
2022-12-15T10:58:21.393Z,-3.40
2022-12-15T11:01:12.139Z,-3.30
2022-12-15T11:04:00.690Z,-3.10
2022-12-15T11:06:57.289Z,-3.00
2022-12-15T11:09:45.838Z,-2.80
2022-12-15T11:12:58.395Z,-2.90
2022-12-15T11:15:51.414Z,-2.80
2022-12-15T11:18:40.447Z,-2.60
2022-12-15T11:21:34.326Z,-2.60
2022-12-15T11:24:26.055Z,-2.50
2022-12-15T11:27:16.371Z,-2.40
2022-12-15T11:30:14.202Z,-2.30
2022-12-15T11:33:06.585Z,-3.60
2022-12-15T11:36:03.282Z,-2.40
2022-12-15T11:38:55.280Z,-2.20
2022-12-15T11:41:50.234Z,-2.10
2022-12-15T11:44:41.019Z,-2.10
2022-12-15T11:47:35.167Z,-2.10
2022-12-15T11:50:33.361Z,-2.10
2022-12-15T11:53:27.879Z,-1.10
2022-12-15T11:56:28.881Z,-1.90
2022-12-15T11:59:29.676Z,-2.00
2022-12-15T12:02:40.260Z,-2.00
2022-12-15T12:05:33.275Z,-2.00
2022-12-15T12:08:31.599Z,-1.90
2022-12-15T12:11:21.658Z,-1.90
2022-12-15T12:14:17.420Z,-1.90
2022-12-15T12:17:09.661Z,-1.90
2022-12-15T12:20:00.178Z,-1.90
2022-12-15T12:22:55.268Z,-1.80
2022-12-15T12:25:44.869Z,-1.80
2022-12-15T12:28:41.907Z,-1.60
2022-12-15T12:31:35.120Z,-1.60
2022-12-15T12:34:27.510Z,-1.50
2022-12-15T12:37:20.072Z,-1.60
2022-12-15T12:40:17.876Z,-1.40
2022-12-15T12:43:11.833Z,-1.30
2022-12-15T12:46:04.452Z,-1.40
2022-12-15T12:48:56.263Z,-1.20
2022-12-15T12:51:50.667Z,-1.30
2022-12-15T12:54:44.798Z,-1.20
2022-12-15T12:57:41.718Z,-1.30
2022-12-15T13:00:30.276Z,-1.30
2022-12-15T13:03:20.868Z,-1.10
2022-12-15T13:06:23.248Z,-1.10
2022-12-15T13:09:23.783Z,-1.10
2022-12-15T13:12:50.894Z,-1.20
2022-12-15T13:15:42.677Z,-1.30
2022-12-15T13:18:31.453Z,-1.10
2022-12-15T13:21:39.272Z,-1.10
2022-12-15T13:24:31.759Z,-1.00
2022-12-15T13:27:20.727Z,-0.80
2022-12-15T13:30:16.079Z,-0.80
2022-12-15T13:33:18.644Z,-0.90
2022-12-15T13:36:07.124Z,-3.50
2022-12-15T13:38:56.477Z,-0.70
2022-12-15T13:45:36.619Z,0.40
2022-12-15T13:48:35.268Z,0.50
2022-12-15T13:51:26.319Z,0.90
2022-12-15T13:54:16.729Z,1.30
2022-12-15T13:57:05.748Z,1.50
2022-12-15T13:59:54.005Z,1.70
2022-12-15T14:02:42.380Z,1.90
2022-12-15T14:05:33.723Z,2.20
2022-12-15T14:08:22.540Z,2.30
2022-12-15T14:11:50.852Z,2.20
2022-12-15T14:14:27.838Z,2.10
2022-12-15T14:17:16.939Z,1.90
2022-12-15T14:20:12.126Z,1.60
2022-12-15T14:23:01.400Z,1.50
2022-12-15T14:26:03.536Z,1.40
2022-12-15T14:29:00.409Z,1.40
2022-12-15T14:31:52.961Z,1.70
2022-12-15T14:34:42.136Z,2.00
2022-12-15T14:37:30.030Z,1.60
2022-12-15T14:40:21.369Z,1.30
2022-12-15T14:43:21.575Z,1.00
2022-12-15T14:46:13.693Z,0.80
2022-12-15T14:49:03.375Z,0.50
2022-12-15T14:51:52.979Z,0.50
2022-12-15T14:54:57.791Z,0.40
2022-12-15T14:57:48.070Z,0.20
2022-12-15T15:00:36.688Z,0.20
2022-12-15T15:03:27.485Z,0.00
2022-12-15T15:06:19.172Z,0.10
2022-12-15T15:09:20.120Z,-0.10
2022-12-15T15:12:10.683Z,-0.20
2022-12-15T15:15:03.902Z,-0.30
2022-12-15T15:17:52.412Z,-0.40
2022-12-15T15:20:51.536Z,-0.50
2022-12-15T15:23:40.742Z,-0.70
2022-12-15T15:26:29.568Z,-0.80
2022-12-15T15:29:34.353Z,-0.90
2022-12-15T15:32:25.271Z,-1.00
2022-12-15T15:35:13.780Z,-1.10
2022-12-15T15:38:04.097Z,-1.10
2022-12-15T15:40:52.917Z,-1.30
2022-12-15T15:43:41.377Z,-1.40
2022-12-15T15:46:30.510Z,-1.40
2022-12-15T15:49:21.132Z,-1.50
2022-12-15T15:52:08.264Z,-1.50
2022-12-15T15:54:57.546Z,-1.70
2022-12-15T15:57:45.560Z,-1.80
2022-12-15T16:00:33.125Z,-1.80
2022-12-15T16:03:20.937Z,-1.80
2022-12-15T16:06:16.877Z,-1.90
2022-12-15T16:09:04.888Z,-1.80
2022-12-15T16:11:53.183Z,-1.90
2022-12-15T16:14:41.660Z,-1.90
2022-12-15T16:17:30.163Z,-2.00
2022-12-15T16:20:21.663Z,-2.10
2022-12-15T16:23:15.209Z,-2.30
2022-12-15T16:26:03.848Z,-1.80
2022-12-15T16:28:51.632Z,-2.60
2022-12-15T16:31:41.906Z,-2.50
2022-12-15T16:34:29.793Z,-2.60
2022-12-15T16:37:23.930Z,-2.70
2022-12-15T16:40:17.644Z,-2.70
2022-12-15T16:43:10.993Z,-2.70
2022-12-15T16:45:58.991Z,-2.70
2022-12-15T16:48:47.542Z,-2.70
2022-12-15T16:51:36.348Z,-2.70
2022-12-15T16:54:25.949Z,-2.70
2022-12-15T16:57:15.479Z,-2.50
2022-12-15T17:00:03.329Z,-2.70
2022-12-15T17:02:51.320Z,-2.60
2022-12-15T17:05:41.958Z,-2.60
2022-12-15T17:08:31.476Z,-2.60
2022-12-15T17:11:20.407Z,-2.70
2022-12-15T17:14:11.524Z,-2.70
2022-12-15T17:17:02.059Z,-1.50
2022-12-15T17:20:27.357Z,-2.90
2022-12-15T17:23:02.666Z,-3.00
2022-12-15T17:26:19.995Z,-3.00
2022-12-15T17:29:03.432Z,-3.10
2022-12-15T17:31:52.728Z,-3.20
2022-12-15T17:34:43.145Z,-3.20
2022-12-15T17:37:35.200Z,-3.20
2022-12-15T17:40:25.347Z,-2.90
2022-12-15T17:43:14.479Z,-3.20
2022-12-15T17:46:05.181Z,-3.30
2022-12-15T17:48:54.364Z,-3.40
2022-12-15T17:51:42.634Z,-3.50
2022-12-15T17:54:30.158Z,-3.50
2022-12-15T17:57:18.256Z,-3.50
2022-12-15T18:00:16.416Z,-3.40
2022-12-15T18:03:04.866Z,-3.50
2022-12-15T18:05:54.910Z,-3.50
2022-12-15T18:08:43.434Z,-3.50
2022-12-15T18:11:31.623Z,-3.50
2022-12-15T18:14:19.836Z,-3.50
2022-12-15T18:17:08.171Z,-3.50
2022-12-15T18:19:59.573Z,-3.20
2022-12-15T18:22:49.299Z,-3.50
2022-12-15T18:25:37.321Z,-3.50
2022-12-15T18:28:26.373Z,-3.50
2022-12-15T18:31:18.914Z,-3.50
2022-12-15T18:34:10.992Z,-3.30
2022-12-15T18:36:59.275Z,-3.50
2022-12-15T18:39:50.687Z,-3.40
2022-12-15T18:42:39.110Z,-3.50
2022-12-15T18:45:28.378Z,-3.50
2022-12-15T18:48:19.987Z,-3.60
2022-12-15T18:51:15.786Z,-3.70
2022-12-15T18:54:03.898Z,-3.80
2022-12-15T18:56:56.220Z,-4.60
2022-12-15T18:59:43.623Z,-3.90
2022-12-15T19:02:31.453Z,-3.80
2022-12-15T19:05:32.740Z,-4.00
2022-12-15T19:08:27.037Z,-3.80
2022-12-15T19:11:18.627Z,-4.00
2022-12-15T19:14:34.916Z,-4.00
2022-12-15T19:17:40.756Z,-3.90
2022-12-15T19:20:46.002Z,-4.00
2022-12-15T19:23:34.727Z,-3.90
2022-12-15T19:26:23.272Z,-4.00
2022-12-15T19:29:15.459Z,-4.00
2022-12-15T19:32:03.495Z,-4.00
2022-12-15T19:34:51.962Z,-4.10
2022-12-15T19:37:41.222Z,-4.10
2022-12-15T19:40:31.386Z,-4.10
2022-12-15T19:43:19.977Z,-4.20
2022-12-15T19:46:11.371Z,-4.10
2022-12-15T19:48:59.184Z,-4.00
2022-12-15T19:51:47.722Z,-4.00
2022-12-15T19:54:34.994Z,-4.00
2022-12-15T19:57:23.139Z,-3.90
2022-12-15T20:00:18.043Z,-3.90
2022-12-15T20:03:07.024Z,-3.80
2022-12-15T20:05:55.679Z,-4.00
2022-12-15T20:08:45.739Z,-4.30
2022-12-15T20:11:34.905Z,-4.10
2022-12-15T20:14:22.813Z,-4.10
2022-12-15T20:17:10.076Z,-4.10
2022-12-15T20:19:59.126Z,-4.10
2022-12-15T20:22:48.565Z,-4.10
2022-12-15T20:25:36.880Z,-4.00
2022-12-15T20:28:25.399Z,-3.90
2022-12-15T20:31:15.050Z,-3.90
2022-12-15T20:34:02.716Z,-3.90
2022-12-15T20:36:51.783Z,-3.80
2022-12-15T20:39:39.306Z,-6.80
2022-12-15T20:42:27.000Z,-3.70
2022-12-15T20:45:14.852Z,-3.90
2022-12-15T20:48:02.837Z,-3.80
2022-12-15T20:50:50.853Z,-3.80
2022-12-15T20:53:40.232Z,-3.80
2022-12-15T20:56:28.183Z,-3.80
2022-12-15T20:59:16.232Z,-3.90
2022-12-15T21:02:12.792Z,-4.00
2022-12-15T21:05:01.235Z,-4.20
2022-12-15T21:07:49.849Z,-4.30
2022-12-15T21:10:38.963Z,-4.40
2022-12-15T21:13:27.788Z,-4.60
2022-12-15T21:16:17.051Z,-4.70
2022-12-15T21:19:20.444Z,-4.70
2022-12-15T21:22:17.091Z,-4.60
2022-12-15T21:25:05.847Z,-4.90
2022-12-15T21:27:55.329Z,-4.40
2022-12-15T21:30:42.827Z,-4.20
2022-12-15T21:33:30.411Z,-4.20
2022-12-15T21:36:19.117Z,-4.00
2022-12-15T21:39:08.031Z,-4.30
2022-12-15T21:41:56.919Z,-4.30
2022-12-15T21:44:46.510Z,-4.30
2022-12-15T21:47:47.729Z,-4.60
2022-12-15T21:50:36.630Z,-4.70
2022-12-15T21:53:25.297Z,-4.80
2022-12-15T21:56:15.746Z,-5.00
2022-12-15T21:59:05.374Z,-5.10
2022-12-15T22:01:56.210Z,-5.20
2022-12-15T22:04:44.361Z,-5.20
2022-12-15T22:07:32.478Z,-5.00
2022-12-15T22:10:20.032Z,-5.10
2022-12-15T22:13:07.772Z,-5.10
2022-12-15T22:15:55.897Z,-5.00
2022-12-15T22:18:47.424Z,-5.10
2022-12-15T22:21:35.740Z,-5.10
2022-12-15T22:24:23.530Z,-5.10
2022-12-15T22:27:18.025Z,-5.00
2022-12-15T22:30:18.297Z,-5.00
2022-12-15T22:33:14.082Z,-5.00
2022-12-15T22:36:07.424Z,-5.00
2022-12-15T22:38:55.757Z,-5.10
2022-12-15T22:41:44.855Z,-5.20
2022-12-15T22:44:33.752Z,-5.20
2022-12-15T22:47:22.120Z,-5.20
2022-12-15T22:50:15.378Z,-5.60
2022-12-15T22:53:06.883Z,-5.10
2022-12-15T22:55:54.512Z,-4.90
2022-12-15T22:58:44.468Z,-4.40
2022-12-15T23:01:32.804Z,-4.70
2022-12-15T23:04:20.880Z,-4.60
2022-12-15T23:07:10.271Z,-4.40
2022-12-15T23:10:12.938Z,-4.40
2022-12-15T23:13:01.076Z,-4.10
2022-12-15T23:16:05.949Z,-3.90
2022-12-15T23:18:54.825Z,-3.90
2022-12-15T23:21:44.189Z,-3.20
2022-12-15T23:24:32.642Z,-3.70
2022-12-15T23:27:23.169Z,-3.60
2022-12-15T23:30:12.900Z,-3.60
2022-12-15T23:33:01.654Z,-3.40
2022-12-15T23:35:49.880Z,-3.40
2022-12-15T23:38:38.345Z,-3.40
2022-12-15T23:41:27.632Z,-3.30
2022-12-15T23:44:16.324Z,-3.30
2022-12-15T23:47:04.363Z,-3.20
2022-12-15T23:49:52.697Z,-3.20
2022-12-15T23:52:41.929Z,-3.20
2022-12-15T23:55:30.099Z,-3.60
2022-12-15T23:58:17.689Z,-4.60
